createdAt,value
2023-05-05T00:02:23.634Z,17.35
2023-05-05T00:04:50.114Z,17.32
2023-05-05T00:07:16.628Z,17.19
2023-05-05T00:09:43.133Z,17.16
2023-05-05T00:12:09.638Z,17.17
2023-05-05T00:14:36.103Z,17.01
2023-05-05T00:17:02.601Z,17.01
2023-05-05T00:19:29.077Z,16.96
2023-05-05T00:21:55.594Z,16.94
2023-05-05T00:24:22.056Z,16.96
2023-05-05T00:26:48.489Z,16.92
2023-05-05T00:29:15.003Z,16.93
2023-05-05T00:31:41.489Z,16.90
2023-05-05T00:34:08.031Z,16.78
2023-05-05T00:36:34.449Z,16.66
2023-05-05T00:39:01.103Z,16.53
2023-05-05T00:41:27.645Z,16.46
2023-05-05T00:43:54.122Z,16.42
2023-05-05T00:46:28.036Z,16.35
2023-05-05T00:48:54.920Z,16.46
2023-05-05T00:51:22.676Z,16.45
2023-05-05T00:53:49.798Z,16.37
2023-05-05T00:56:19.384Z,16.39
2023-05-05T00:58:46.060Z,16.31
2023-05-05T01:01:12.857Z,16.29
2023-05-05T01:03:41.325Z,16.25
2023-05-05T01:06:32.884Z,16.23
2023-05-05T01:09:19.532Z,16.08
2023-05-05T01:12:02.458Z,15.97
2023-05-05T01:14:39.739Z,15.92
2023-05-05T01:17:17.783Z,15.87
2023-05-05T01:20:16.948Z,15.90
2023-05-05T01:22:47.074Z,15.82
2023-05-05T01:25:51.113Z,15.80
2023-05-05T01:28:36.428Z,15.66
2023-05-05T01:31:33.297Z,15.71
2023-05-05T01:34:03.727Z,15.75
2023-05-05T01:36:36.210Z,15.74
2023-05-05T01:39:04.483Z,15.65
2023-05-05T01:41:38.198Z,15.60
2023-05-05T01:44:06.267Z,15.48
2023-05-05T01:46:35.460Z,15.47
2023-05-05T01:49:02.712Z,15.43
2023-05-05T01:51:30.355Z,15.20
2023-05-05T01:53:59.967Z,15.00
2023-05-05T01:56:27.570Z,15.04
2023-05-05T01:58:55.603Z,15.12
2023-05-05T02:01:25.281Z,15.27
2023-05-05T02:03:54.311Z,15.09
2023-05-05T02:06:22.766Z,15.17
2023-05-05T02:08:50.919Z,15.13
2023-05-05T02:11:17.662Z,15.14
2023-05-05T02:13:44.818Z,15.01
2023-05-05T02:16:12.907Z,14.87
2023-05-05T02:18:42.325Z,14.70
2023-05-05T02:21:09.161Z,14.73
2023-05-05T02:23:36.335Z,14.73
2023-05-05T02:26:12.101Z,14.74
2023-05-05T02:29:03.063Z,14.83
2023-05-05T02:31:31.435Z,14.80
2023-05-05T02:33:59.832Z,14.82
2023-05-05T02:36:29.574Z,14.75
2023-05-05T02:39:01.236Z,14.65
2023-05-05T02:41:31.428Z,14.67
2023-05-05T02:44:00.257Z,14.60
2023-05-05T02:46:27.974Z,14.62
2023-05-05T02:48:54.810Z,14.65
2023-05-05T02:51:21.230Z,14.47
2023-05-05T02:53:47.926Z,14.53
2023-05-05T02:56:32.374Z,14.56
2023-05-05T02:59:20.856Z,14.54
2023-05-05T03:01:57.440Z,14.50
2023-05-05T03:04:31.806Z,14.37
2023-05-05T03:07:04.094Z,14.24
2023-05-05T03:09:39.793Z,14.31
2023-05-05T03:12:10.009Z,14.17
2023-05-05T03:14:42.776Z,13.95
2023-05-05T03:17:11.579Z,13.97
2023-05-05T03:19:41.981Z,14.07
2023-05-05T03:22:08.917Z,14.07
2023-05-05T03:24:35.404Z,14.06
2023-05-05T03:27:03.048Z,13.98
2023-05-05T03:29:30.143Z,14.01
2023-05-05T03:31:56.688Z,14.06
2023-05-05T03:34:23.219Z,14.17
2023-05-05T03:36:49.680Z,14.21
2023-05-05T03:39:16.401Z,14.24
2023-05-05T03:41:42.856Z,14.26
2023-05-05T03:44:09.330Z,14.17
2023-05-05T03:46:35.991Z,14.09
2023-05-05T03:49:02.496Z,13.92
2023-05-05T03:51:28.937Z,13.94
2023-05-05T03:53:55.509Z,13.79
2023-05-05T03:56:21.998Z,13.71
2023-05-05T03:58:48.496Z,13.71
2023-05-05T04:01:14.918Z,13.68
2023-05-05T04:03:41.524Z,13.49
2023-05-05T04:06:07.987Z,13.58
2023-05-05T04:08:34.612Z,13.72
2023-05-05T04:11:04.028Z,13.86
2023-05-05T04:13:30.493Z,13.77
2023-05-05T04:15:57.071Z,13.74
2023-05-05T04:18:23.523Z,13.69
2023-05-05T04:20:49.958Z,13.64
2023-05-05T04:23:16.379Z,13.60
2023-05-05T04:25:42.902Z,13.62
2023-05-05T04:28:09.342Z,13.69
2023-05-05T04:30:35.782Z,13.82
2023-05-05T04:33:02.250Z,13.89
2023-05-05T04:35:28.715Z,13.85
2023-05-05T04:37:55.555Z,13.87
2023-05-05T04:40:22.085Z,13.84
2023-05-05T04:42:48.503Z,13.93
2023-05-05T04:45:15.174Z,13.97
2023-05-05T04:47:41.790Z,13.99
2023-05-05T04:50:09.114Z,14.04
2023-05-05T04:52:35.813Z,14.07
2023-05-05T04:55:02.418Z,14.09
2023-05-05T04:57:30.121Z,14.10
2023-05-05T04:59:56.609Z,14.11
2023-05-05T05:02:23.090Z,14.14
2023-05-05T05:04:49.540Z,14.19
2023-05-05T05:07:16.054Z,14.22
2023-05-05T05:09:42.537Z,14.23
2023-05-05T05:12:09.765Z,14.21
2023-05-05T05:14:38.046Z,14.24
2023-05-05T05:17:06.091Z,14.29
2023-05-05T05:19:32.790Z,14.15
2023-05-05T05:21:59.197Z,14.04
2023-05-05T05:24:25.690Z,13.95
2023-05-05T05:26:52.145Z,13.94
2023-05-05T05:29:20.287Z,13.98
2023-05-05T05:31:46.735Z,14.00
2023-05-05T05:34:13.177Z,14.00
2023-05-05T05:36:39.693Z,14.03
2023-05-05T05:39:06.360Z,14.09
2023-05-05T05:41:32.793Z,14.17
2023-05-05T05:43:59.233Z,14.25
2023-05-05T05:46:25.760Z,14.31
2023-05-05T05:48:53.023Z,14.41
2023-05-05T05:51:19.550Z,14.45
2023-05-05T05:53:46.081Z,14.50
2023-05-05T05:56:12.537Z,14.52
2023-05-05T05:58:40.510Z,14.57
2023-05-05T06:01:07.009Z,14.58
2023-05-05T06:03:33.652Z,14.58
2023-05-05T06:06:00.222Z,14.63
2023-05-05T06:08:26.865Z,14.68
2023-05-05T06:10:53.325Z,14.71
2023-05-05T06:13:19.845Z,14.70
2023-05-05T06:15:46.373Z,14.67
2023-05-05T06:18:13.025Z,14.68
2023-05-05T06:20:39.967Z,14.69
2023-05-05T06:23:06.815Z,14.74
2023-05-05T06:25:33.377Z,14.81
2023-05-05T06:28:00.067Z,14.85
2023-05-05T06:30:26.793Z,14.91
2023-05-05T06:32:54.333Z,14.98
2023-05-05T06:35:22.219Z,15.04
2023-05-05T06:37:48.708Z,15.09
2023-05-05T06:40:15.208Z,15.13
2023-05-05T06:42:41.728Z,15.19
2023-05-05T06:45:08.867Z,15.24
2023-05-05T06:47:36.000Z,15.27
2023-05-05T06:50:02.611Z,15.32
2023-05-05T06:52:29.034Z,15.35
2023-05-05T06:54:55.624Z,15.42
2023-05-05T06:57:22.139Z,15.51
2023-05-05T06:59:48.651Z,15.57
2023-05-05T07:02:15.169Z,15.62
2023-05-05T07:04:41.695Z,15.66
2023-05-05T07:07:08.209Z,15.74
2023-05-05T07:09:34.682Z,15.78
2023-05-05T07:12:01.936Z,15.87
2023-05-05T07:14:28.411Z,16.00
2023-05-05T07:16:54.905Z,16.09
2023-05-05T07:19:21.407Z,16.16
2023-05-05T07:21:47.829Z,16.19
2023-05-05T07:24:14.286Z,16.24
2023-05-05T07:26:40.812Z,16.28
2023-05-05T07:29:07.254Z,16.38
2023-05-05T07:31:33.735Z,16.47
2023-05-05T07:34:00.204Z,16.55
2023-05-05T07:36:27.899Z,16.60
2023-05-05T07:38:54.762Z,16.70
2023-05-05T07:41:21.296Z,16.75
2023-05-05T07:43:47.738Z,16.81
2023-05-05T07:46:14.804Z,16.88
2023-05-05T07:48:41.966Z,16.97
2023-05-05T07:51:09.745Z,17.07
2023-05-05T07:53:36.974Z,17.15
2023-05-05T07:56:03.797Z,17.21
2023-05-05T07:58:30.344Z,17.22
2023-05-05T08:00:56.867Z,17.19
2023-05-05T08:03:24.869Z,17.20
2023-05-05T08:05:54.885Z,17.14
2023-05-05T08:08:24.815Z,17.13
2023-05-05T08:10:52.899Z,17.07
2023-05-05T08:13:19.465Z,17.09
2023-05-05T08:15:45.965Z,17.12
2023-05-05T08:18:12.454Z,17.21
2023-05-05T08:20:38.982Z,17.21
2023-05-05T08:23:05.532Z,17.26
2023-05-05T08:25:32.015Z,17.31
2023-05-05T08:27:58.503Z,17.28
2023-05-05T08:30:25.030Z,17.38
2023-05-05T08:32:51.520Z,17.41
2023-05-05T08:35:18.211Z,17.44
2023-05-05T08:37:44.860Z,17.53
2023-05-05T08:40:14.091Z,17.55
2023-05-05T08:42:41.784Z,17.58
2023-05-05T08:45:09.905Z,17.67
2023-05-05T08:47:38.044Z,17.69
2023-05-05T08:50:07.800Z,17.59
2023-05-05T08:52:48.610Z,17.62
2023-05-05T08:55:28.382Z,17.59
2023-05-05T08:57:57.503Z,17.59
2023-05-05T09:00:26.483Z,17.54
2023-05-05T09:02:55.932Z,17.62
2023-05-05T09:05:22.766Z,17.69
2023-05-05T09:07:50.314Z,17.78
2023-05-05T09:10:17.454Z,18.04
2023-05-05T09:12:44.498Z,18.20
2023-05-05T09:15:13.906Z,18.20
2023-05-05T09:17:41.330Z,18.23
2023-05-05T09:20:10.486Z,18.28
2023-05-05T09:22:41.468Z,18.36
2023-05-05T09:25:16.789Z,18.31
2023-05-05T09:27:48.268Z,18.27
2023-05-05T09:30:24.526Z,18.26
2023-05-05T09:32:53.578Z,18.21
2023-05-05T09:35:21.526Z,18.19
2023-05-05T09:37:48.147Z,18.20
2023-05-05T09:40:16.845Z,18.18
2023-05-05T09:42:44.569Z,18.15
2023-05-05T09:45:17.211Z,18.10
2023-05-05T09:47:45.753Z,18.16
2023-05-05T09:50:15.852Z,18.31
2023-05-05T09:52:43.332Z,18.41
2023-05-05T09:55:18.884Z,18.39
2023-05-05T09:57:47.257Z,18.38
2023-05-05T10:00:14.648Z,18.46
2023-05-05T10:02:41.877Z,18.49
2023-05-05T10:05:09.743Z,18.56
2023-05-05T10:07:37.037Z,18.58
2023-05-05T10:10:05.815Z,18.57
2023-05-05T10:12:35.556Z,18.57
2023-05-05T10:15:03.468Z,18.56
2023-05-05T10:17:36.929Z,18.50
2023-05-05T10:20:04.451Z,18.48
2023-05-05T10:22:34.964Z,18.58
2023-05-05T10:25:03.148Z,18.61
2023-05-05T10:27:34.653Z,18.63
2023-05-05T10:30:05.086Z,18.71
2023-05-05T10:32:56.944Z,18.85
2023-05-05T10:35:22.900Z,18.92
2023-05-05T10:37:50.102Z,18.96
2023-05-05T10:40:17.844Z,19.04
2023-05-05T10:42:44.796Z,19.10
2023-05-05T10:45:11.366Z,19.09
2023-05-05T10:47:40.181Z,19.09
2023-05-05T10:50:17.917Z,19.10
2023-05-05T10:53:15.296Z,19.05
2023-05-05T10:55:49.853Z,19.01
2023-05-05T10:58:51.277Z,19.01
2023-05-05T11:01:30.532Z,19.05
2023-05-05T11:04:16.944Z,19.03
2023-05-05T11:07:09.266Z,19.07
2023-05-05T11:09:54.947Z,19.06
2023-05-05T11:12:21.598Z,19.00
2023-05-05T11:14:48.094Z,18.98
2023-05-05T11:17:49.049Z,18.92
2023-05-05T11:20:15.923Z,18.84
2023-05-05T11:23:05.635Z,18.68
2023-05-05T11:25:35.357Z,18.53
2023-05-05T11:28:08.944Z,18.31
2023-05-05T11:30:36.737Z,17.91
2023-05-05T11:33:32.419Z,17.66
2023-05-05T11:36:10.234Z,17.44
2023-05-05T11:39:07.756Z,17.23
2023-05-05T11:42:01.618Z,17.24
2023-05-05T11:44:32.587Z,17.18
2023-05-05T11:47:01.893Z,17.16
2023-05-05T11:49:39.416Z,17.27
2023-05-05T11:52:11.120Z,17.31
2023-05-05T11:54:47.499Z,17.26
2023-05-05T11:57:15.306Z,17.30
2023-05-05T11:59:51.725Z,17.28
2023-05-05T12:02:19.070Z,17.20
2023-05-05T12:04:46.884Z,17.09
2023-05-05T12:07:21.393Z,16.85
2023-05-05T12:09:49.197Z,16.59
2023-05-05T12:12:16.717Z,16.41
2023-05-05T12:14:53.067Z,16.36
2023-05-05T12:17:20.626Z,16.35
2023-05-05T12:19:54.688Z,16.52
2023-05-05T12:22:23.484Z,16.71
2023-05-05T12:25:01.102Z,16.84
2023-05-05T12:27:28.582Z,17.10
2023-05-05T12:30:11.834Z,17.34
2023-05-05T12:32:38.399Z,17.59
2023-05-05T12:35:06.694Z,17.71
2023-05-05T12:37:33.358Z,17.70
2023-05-05T12:39:59.810Z,17.54
2023-05-05T12:42:26.400Z,17.51
2023-05-05T12:44:52.894Z,17.55
2023-05-05T12:47:33.069Z,17.71
2023-05-05T12:50:00.765Z,17.79
2023-05-05T12:52:44.246Z,17.82
2023-05-05T12:55:11.350Z,17.87
2023-05-05T12:57:38.597Z,17.89
2023-05-05T13:00:16.683Z,17.88
2023-05-05T13:02:43.237Z,17.75
2023-05-05T13:05:10.159Z,17.66
2023-05-05T13:07:49.962Z,17.76
2023-05-05T13:10:16.553Z,17.80
2023-05-05T13:12:43.083Z,17.86
2023-05-05T13:15:10.264Z,17.96
2023-05-05T13:17:36.886Z,17.95
2023-05-05T13:20:03.753Z,18.01
2023-05-05T13:22:30.671Z,18.11
2023-05-05T13:24:57.226Z,18.15
2023-05-05T13:27:23.730Z,18.21
2023-05-05T13:29:50.194Z,18.12
2023-05-05T13:32:16.785Z,18.21
2023-05-05T13:34:44.121Z,18.24
2023-05-05T13:37:10.728Z,18.32
2023-05-05T13:39:37.165Z,18.36
2023-05-05T13:42:03.809Z,18.35
2023-05-05T13:44:30.342Z,18.33
2023-05-05T13:46:56.941Z,18.24
2023-05-05T13:49:23.845Z,18.19
2023-05-05T13:51:50.752Z,18.21
2023-05-05T13:54:17.353Z,18.23
2023-05-05T13:56:43.931Z,18.28
2023-05-05T13:59:10.472Z,18.27
2023-05-05T14:01:37.199Z,18.25
2023-05-05T14:04:05.695Z,18.23
2023-05-05T14:06:36.484Z,18.20
2023-05-05T14:09:05.707Z,18.19
2023-05-05T14:11:32.310Z,18.19
2023-05-05T14:13:58.768Z,18.21
2023-05-05T14:16:25.264Z,18.24
2023-05-05T14:18:52.358Z,18.25
2023-05-05T14:21:18.777Z,18.28
2023-05-05T14:23:45.302Z,18.29
2023-05-05T14:26:11.798Z,18.34
2023-05-05T14:28:38.313Z,18.30
2023-05-05T14:31:05.043Z,18.32
2023-05-05T14:33:31.544Z,18.29
2023-05-05T14:35:57.955Z,18.23
2023-05-05T14:38:24.497Z,18.20
2023-05-05T14:40:51.051Z,18.23
2023-05-05T14:43:17.483Z,18.21
2023-05-05T14:45:44.402Z,18.19
2023-05-05T14:48:11.120Z,18.11
2023-05-05T14:50:38.526Z,17.98
2023-05-05T14:53:05.035Z,17.91
2023-05-05T14:55:31.560Z,17.89
2023-05-05T14:57:57.987Z,17.91
2023-05-05T15:00:26.513Z,17.86
2023-05-05T15:02:53.069Z,17.66
2023-05-05T15:05:19.602Z,17.55
2023-05-05T15:07:46.062Z,16.89
2023-05-05T15:10:12.700Z,16.47
2023-05-05T15:12:39.280Z,16.17
2023-05-05T15:15:08.659Z,16.11
2023-05-05T15:17:37.408Z,15.84
2023-05-05T15:20:06.182Z,15.55
2023-05-05T15:22:32.674Z,15.45
2023-05-05T15:24:59.691Z,15.50
2023-05-05T15:27:26.307Z,15.54
2023-05-05T15:29:52.931Z,15.47
2023-05-05T15:32:19.354Z,15.55
2023-05-05T15:34:46.808Z,15.44
2023-05-05T15:37:14.120Z,15.56
2023-05-05T15:39:40.632Z,15.69
2023-05-05T15:42:07.412Z,15.75
2023-05-05T15:44:33.831Z,15.70
2023-05-05T15:47:00.372Z,15.75
2023-05-05T15:49:26.908Z,15.70
2023-05-05T15:51:53.380Z,15.59
2023-05-05T15:54:19.856Z,15.70
2023-05-05T15:56:46.291Z,15.65
2023-05-05T15:59:12.736Z,15.63
2023-05-05T16:01:39.258Z,15.59
2023-05-05T16:04:05.813Z,15.64
2023-05-05T16:06:32.282Z,15.72
2023-05-05T16:08:59.920Z,15.78
2023-05-05T16:11:26.985Z,15.82
2023-05-05T16:13:53.863Z,15.79
2023-05-05T16:16:20.934Z,15.54
2023-05-05T16:18:47.932Z,15.46
2023-05-05T16:21:14.595Z,15.47
2023-05-05T16:23:41.354Z,15.62
2023-05-05T16:26:07.916Z,15.60
2023-05-05T16:28:34.737Z,15.62
2023-05-05T16:31:02.182Z,15.73
2023-05-05T16:33:29.316Z,15.83
2023-05-05T16:35:56.270Z,15.85
2023-05-05T16:38:22.825Z,15.85
2023-05-05T16:40:49.628Z,15.98
2023-05-05T16:43:16.213Z,15.68
2023-05-05T16:45:43.402Z,15.64
2023-05-05T16:48:10.008Z,15.63
2023-05-05T16:50:36.467Z,15.43
2023-05-05T16:53:02.914Z,15.38
2023-05-05T16:55:29.707Z,15.44
2023-05-05T16:57:56.145Z,15.46
2023-05-05T17:00:22.585Z,15.43
2023-05-05T17:02:49.107Z,15.54
2023-05-05T17:05:17.338Z,15.70
2023-05-05T17:07:43.925Z,15.84
2023-05-05T17:10:10.761Z,15.88
2023-05-05T17:12:37.341Z,15.88
2023-05-05T17:15:04.223Z,15.88
2023-05-05T17:17:30.830Z,15.83
2023-05-05T17:19:57.394Z,15.80
2023-05-05T17:22:23.955Z,15.83
2023-05-05T17:24:50.907Z,15.79
2023-05-05T17:27:17.497Z,15.75
2023-05-05T17:29:44.065Z,15.54
2023-05-05T17:32:10.661Z,15.45
2023-05-05T17:34:37.314Z,15.48
2023-05-05T17:37:03.826Z,15.54
2023-05-05T17:39:30.951Z,15.55
2023-05-05T17:41:57.382Z,15.53
2023-05-05T17:44:23.871Z,15.37
2023-05-05T17:46:50.562Z,15.32
2023-05-05T17:49:17.025Z,15.28
2023-05-05T17:51:43.570Z,15.25
2023-05-05T17:54:09.987Z,15.25
2023-05-05T17:56:37.963Z,15.26
2023-05-05T17:59:04.396Z,15.22
2023-05-05T18:01:30.877Z,15.20
2023-05-05T18:03:57.411Z,15.07
2023-05-05T18:08:52.387Z,15.05
2023-05-05T18:11:21.151Z,15.00
2023-05-05T18:13:47.647Z,15.07
2023-05-05T18:16:14.234Z,15.06
2023-05-05T18:18:41.302Z,15.09
2023-05-05T18:21:11.889Z,14.98
2023-05-05T18:23:39.369Z,15.05
2023-05-05T18:26:06.475Z,15.15
2023-05-05T18:28:33.105Z,15.16
2023-05-05T18:30:59.588Z,15.23
2023-05-05T18:33:26.560Z,15.26
2023-05-05T18:35:52.996Z,15.26
2023-05-05T18:38:19.662Z,15.14
2023-05-05T18:40:46.177Z,15.07
2023-05-05T18:43:12.714Z,15.12
2023-05-05T18:45:39.244Z,15.18
2023-05-05T18:48:05.906Z,15.18
2023-05-05T18:50:33.220Z,15.14
2023-05-05T18:52:59.632Z,15.11
2023-05-05T18:55:26.213Z,15.13
2023-05-05T18:57:52.985Z,15.19
2023-05-05T19:00:20.698Z,15.23
2023-05-05T19:02:47.207Z,15.24
2023-05-05T19:05:13.729Z,15.22
2023-05-05T19:07:40.254Z,15.20
2023-05-05T19:10:07.326Z,15.21
2023-05-05T19:12:33.804Z,15.19
2023-05-05T19:15:00.385Z,15.14
2023-05-05T19:17:26.912Z,15.13
2023-05-05T19:19:53.439Z,15.09
2023-05-05T19:22:21.770Z,15.00
2023-05-05T19:24:48.205Z,14.97
2023-05-05T19:27:16.588Z,14.91
2023-05-05T19:29:43.671Z,14.89
2023-05-05T19:32:10.252Z,14.88
2023-05-05T19:34:36.975Z,14.86
2023-05-05T19:37:03.573Z,14.70
2023-05-05T19:39:30.196Z,14.58
2023-05-05T19:41:56.674Z,14.38
2023-05-05T19:44:23.747Z,14.27
2023-05-05T19:46:50.249Z,14.27
2023-05-05T19:49:16.698Z,14.31
2023-05-05T19:51:43.831Z,14.37
2023-05-05T19:54:10.355Z,14.34
2023-05-05T19:56:36.885Z,14.34
2023-05-05T19:59:06.053Z,14.36
2023-05-05T20:01:35.675Z,14.34
2023-05-05T20:04:03.686Z,14.32
2023-05-05T20:06:30.382Z,14.33
2023-05-05T20:08:56.829Z,14.35
2023-05-05T20:11:26.504Z,14.26
2023-05-05T20:13:53.237Z,14.18
2023-05-05T20:16:20.159Z,14.08
2023-05-05T20:18:46.864Z,14.10
2023-05-05T20:21:14.256Z,14.06
2023-05-05T20:23:42.772Z,14.02
2023-05-05T20:26:09.539Z,13.93
2023-05-05T20:28:35.987Z,13.92
2023-05-05T20:31:02.569Z,13.92
2023-05-05T20:33:29.227Z,13.86
2023-05-05T20:35:55.827Z,13.79
2023-05-05T20:38:22.281Z,13.78
2023-05-05T20:40:49.705Z,13.73
2023-05-05T20:43:16.322Z,13.73
2023-05-05T20:45:42.890Z,13.66
2023-05-05T20:48:11.168Z,13.69
2023-05-05T20:50:38.716Z,13.69
2023-05-05T20:53:07.874Z,13.65
2023-05-05T20:55:34.437Z,13.57
2023-05-05T20:58:01.062Z,13.47
2023-05-05T21:00:27.672Z,13.55
2023-05-05T21:02:54.381Z,13.53
2023-05-05T21:05:20.973Z,13.42
2023-05-05T21:07:47.487Z,13.25
2023-05-05T21:10:14.030Z,13.29
2023-05-05T21:12:41.619Z,13.28
2023-05-05T21:15:09.101Z,13.16
2023-05-05T21:17:36.053Z,13.15
2023-05-05T21:20:02.626Z,13.11
2023-05-05T21:22:29.116Z,13.13
2023-05-05T21:25:09.158Z,13.03
2023-05-05T21:27:35.586Z,13.02
2023-05-05T21:30:02.009Z,13.03
2023-05-05T21:32:28.542Z,12.89
2023-05-05T21:34:55.138Z,12.91
2023-05-05T21:37:21.581Z,12.83
2023-05-05T21:39:49.503Z,12.66
2023-05-05T21:42:16.139Z,12.55
2023-05-05T21:44:42.576Z,12.52
2023-05-05T21:47:09.913Z,12.56
2023-05-05T21:49:36.434Z,12.71
2023-05-05T21:52:02.963Z,12.69
2023-05-05T21:54:30.031Z,12.71
2023-05-05T21:56:56.579Z,12.69
2023-05-05T21:59:23.024Z,12.66
2023-05-05T22:01:49.839Z,12.63
2023-05-05T22:04:16.301Z,12.69
2023-05-05T22:06:42.727Z,12.76
2023-05-05T22:09:09.237Z,12.62
2023-05-05T22:11:35.905Z,12.60
2023-05-05T22:14:02.563Z,12.61
2023-05-05T22:16:29.139Z,12.60
2023-05-05T22:18:55.581Z,12.48
2023-05-05T22:21:22.096Z,12.58
2023-05-05T22:23:48.569Z,12.52
2023-05-05T22:26:15.039Z,12.55
2023-05-05T22:28:41.564Z,12.58
2023-05-05T22:31:08.100Z,12.59
2023-05-05T22:33:36.032Z,12.59
2023-05-05T22:36:02.520Z,12.59
2023-05-05T22:38:29.017Z,12.52
2023-05-05T22:40:55.524Z,12.47
2023-05-05T22:43:21.958Z,12.49
2023-05-05T22:45:48.458Z,12.52
2023-05-05T22:48:15.032Z,12.44
2023-05-05T22:50:41.490Z,12.40
2023-05-05T22:53:08.015Z,12.33
2023-05-05T22:55:34.470Z,12.34
2023-05-05T22:58:00.934Z,12.34
2023-05-05T23:00:28.241Z,12.42
2023-05-05T23:02:55.077Z,12.45
2023-05-05T23:05:22.023Z,12.46
2023-05-05T23:07:48.538Z,12.46
2023-05-05T23:10:15.047Z,12.46
2023-05-05T23:12:41.587Z,12.48
2023-05-05T23:15:08.795Z,12.53
2023-05-05T23:17:35.551Z,12.55
2023-05-05T23:20:02.604Z,12.61
2023-05-05T23:22:29.037Z,12.64
2023-05-05T23:24:55.574Z,12.73
2023-05-05T23:27:23.018Z,12.77
2023-05-05T23:29:49.485Z,12.65
2023-05-05T23:32:16.017Z,12.68
2023-05-05T23:34:42.490Z,12.73
2023-05-05T23:37:08.898Z,12.73
2023-05-05T23:39:35.484Z,12.71
2023-05-05T23:42:01.984Z,12.70
2023-05-05T23:44:28.524Z,12.70
2023-05-05T23:46:55.033Z,12.68
2023-05-05T23:49:21.661Z,12.67
2023-05-05T23:51:48.096Z,12.72
2023-05-05T23:54:14.634Z,12.61
2023-05-05T23:56:41.123Z,12.62
2023-05-05T23:59:07.644Z,12.64
